Overview Statistics Trail Chart Weather Telemetry Raw packets
 

This is the latest recevied weather packets stored in our database for station/object EA3DJ-10. If no packets are shown the sender has not sent any weather packets the latest 10 day(s).

<< 1 2 3 4 5 6 7 >>
Time Temp. Humidity Pressure Rain* Wind** Luminosity Snow
1788548461 29.44° C 35% 1021.3 hPa - - - -
1788547261 29.44° C 39% 1020.9 hPa - - - -
1788546061 29.44° C 45% 1020.6 hPa - - - -
1788544861 28.33° C 48% 1020.6 hPa - - - -
1788543661 28.89° C 47% 1020.5 hPa - - - -
1788542461 33.33° C 37% 1020.2 hPa - - - -
1788541261 33.33° C 35% 1019.9 hPa - - - -
1788540061 28.33° C 44% 1020 hPa - - - -
1788538861 25.56° C 47% 1020 hPa - - - -
1788537660 23.89° C 48% 1020.2 hPa - - - -
1788536460 24.44° C 51% 1020.1 hPa - - - -
1788535260 26.67° C 50% 1020 hPa - - - -
1788534060 26.11° C 48% 1019.9 hPa - - - -
1788532860 25.56° C 46% 1020 hPa - - - -
1788531660 24.44° C 48% 1020.1 hPa - - - -
1788530459 25° C 50% 1020.2 hPa - - - -
1788529259 26.67° C 47% 1020.2 hPa - - - -
1788528059 24.44° C 49% 1020.4 hPa - - - -
1788526859 25° C 51% 1020.5 hPa - - - -
1788525659 27.78° C 51% 1020.6 hPa - - - -
1788524459 27.22° C 50% 1020.7 hPa - - - -
1788523259 25.56° C 50% 1020.9 hPa - - - -
1788522059 26.11° C 55% 1020.9 hPa - - - -
1788520858 28.33° C 55% 1021 hPa - - - -
1788519658 28.33° C 55% 1021.2 hPa - - - -

* Rain since midnight (hover to see other rain measurements)
** Current wind speed in m/s (hover to see current wind gust speed)